createdAt,value
2023-02-06T00:00:49.839Z,22.50
2023-02-06T00:02:58.616Z,22.50
2023-02-06T00:05:05.533Z,22.50
2023-02-06T00:07:12.714Z,22.60
2023-02-06T00:09:19.588Z,22.60
2023-02-06T00:11:26.923Z,22.60
2023-02-06T00:13:33.798Z,22.60
2023-02-06T00:15:40.971Z,22.60
2023-02-06T00:17:47.892Z,22.60
2023-02-06T00:19:56.730Z,22.70
2023-02-06T00:22:03.607Z,22.70
2023-02-06T00:24:11.089Z,22.70
2023-02-06T00:26:18.069Z,22.80
2023-02-06T00:28:25.349Z,22.80
2023-02-06T00:30:32.524Z,22.80
2023-02-06T00:32:39.775Z,22.80
2023-02-06T00:34:46.640Z,22.90
2023-02-06T00:36:55.564Z,22.90
2023-02-06T00:39:03.824Z,22.90
2023-02-06T00:41:11.009Z,22.90
2023-02-06T00:43:17.866Z,22.90
2023-02-06T00:45:24.806Z,22.90
2023-02-06T00:47:31.934Z,22.90
2023-02-06T00:49:38.815Z,23.00
2023-02-06T00:51:45.889Z,23.00
2023-02-06T00:53:56.519Z,23.10
2023-02-06T00:56:03.683Z,23.10
2023-02-06T00:58:10.804Z,23.20
2023-02-06T01:00:18.564Z,23.30
2023-02-06T01:02:25.938Z,23.30
2023-02-06T01:04:32.819Z,23.30
2023-02-06T01:06:40.202Z,23.40
2023-02-06T01:08:47.485Z,23.40
2023-02-06T01:10:56.466Z,23.40
2023-02-06T01:13:03.642Z,23.50
2023-02-06T01:15:12.319Z,23.50
2023-02-06T01:17:19.712Z,23.50
2023-02-06T01:19:26.924Z,23.50
2023-02-06T01:21:34.364Z,23.50
2023-02-06T01:23:42.159Z,23.60
2023-02-06T01:25:49.029Z,23.60
2023-02-06T01:27:57.892Z,23.60
2023-02-06T01:30:04.776Z,23.60
2023-02-06T01:32:11.940Z,23.70
2023-02-06T01:34:18.839Z,23.60
2023-02-06T01:36:26.114Z,23.70
2023-02-06T01:38:32.991Z,23.70
2023-02-06T01:40:41.759Z,23.70
2023-02-06T01:42:48.787Z,23.70
2023-02-06T01:45:24.795Z,23.80
2023-02-06T01:47:33.818Z,23.90
2023-02-06T01:49:44.380Z,24.00
2023-02-06T01:51:53.303Z,24.10
2023-02-06T01:54:03.401Z,24.10
2023-02-06T01:56:12.016Z,24.20
2023-02-06T01:58:28.006Z,24.30
2023-02-06T02:00:35.419Z,24.40
2023-02-06T02:02:49.319Z,24.40
2023-02-06T02:04:56.768Z,24.50
2023-02-06T02:07:11.017Z,24.60
2023-02-06T02:09:18.610Z,24.60
2023-02-06T02:11:30.197Z,24.70
2023-02-06T02:13:39.833Z,24.80
2023-02-06T02:15:53.728Z,24.90
2023-02-06T02:18:11.708Z,25.00
2023-02-06T02:20:51.254Z,25.00
2023-02-06T02:23:11.489Z,25.10
2023-02-06T02:25:52.823Z,25.20
2023-02-06T02:28:27.195Z,25.30
2023-02-06T02:31:04.327Z,25.40
2023-02-06T02:33:36.851Z,25.50
2023-02-06T02:35:54.756Z,25.50
2023-02-06T02:38:15.587Z,25.60
2023-02-06T02:40:30.510Z,25.70
2023-02-06T02:42:43.058Z,25.80
2023-02-06T02:44:53.777Z,25.80
2023-02-06T02:47:04.025Z,25.90
2023-02-06T02:49:15.453Z,26.00
2023-02-06T02:51:24.527Z,26.10
2023-02-06T02:53:32.119Z,26.20
2023-02-06T02:55:39.149Z,26.20
2023-02-06T02:57:50.628Z,26.30
2023-02-06T03:00:00.471Z,26.40
2023-02-06T03:02:14.483Z,26.50
2023-02-06T03:04:25.742Z,26.50
2023-02-06T03:07:16.992Z,26.60
2023-02-06T03:09:35.963Z,26.70
2023-02-06T03:11:47.396Z,26.70
2023-02-06T03:13:56.981Z,26.80
2023-02-06T03:16:08.944Z,26.90
2023-02-06T03:18:21.177Z,26.90
2023-02-06T03:20:28.874Z,27.00
2023-02-06T03:22:39.894Z,27.10
2023-02-06T03:24:47.482Z,27.20
2023-02-06T03:26:59.682Z,27.30
2023-02-06T03:29:08.867Z,27.30
2023-02-06T03:31:20.207Z,27.40
2023-02-06T03:33:34.027Z,27.50
2023-02-06T03:35:42.749Z,27.60
2023-02-06T03:37:52.232Z,27.60
2023-02-06T03:40:01.412Z,27.70
2023-02-06T03:42:10.126Z,27.70
2023-02-06T03:44:21.916Z,27.80
2023-02-06T03:46:31.354Z,27.90
2023-02-06T03:48:41.350Z,28.00
2023-02-06T03:50:51.347Z,28.10
2023-02-06T03:53:03.188Z,28.20
2023-02-06T03:55:14.007Z,28.30
2023-02-06T03:57:23.236Z,28.40
2023-02-06T03:59:30.266Z,28.40
2023-02-06T04:01:37.767Z,28.40
2023-02-06T04:03:45.095Z,28.50
2023-02-06T04:05:52.476Z,28.60
2023-02-06T04:08:01.143Z,28.70
2023-02-06T04:10:08.839Z,28.70
2023-02-06T04:12:16.411Z,28.80
2023-02-06T04:14:23.868Z,28.90
2023-02-06T04:16:31.094Z,29.00
2023-02-06T04:18:38.338Z,29.10
2023-02-06T04:20:45.309Z,29.10
2023-02-06T04:22:52.803Z,29.20
2023-02-06T04:25:01.414Z,29.30
2023-02-06T04:27:08.799Z,29.30
2023-02-06T04:29:15.675Z,29.40
2023-02-06T04:31:22.824Z,29.50
2023-02-06T04:33:29.788Z,29.60
2023-02-06T04:35:37.649Z,29.70
2023-02-06T04:37:44.606Z,29.70
2023-02-06T04:39:52.049Z,29.80
2023-02-06T04:42:00.765Z,29.80
2023-02-06T04:44:08.148Z,29.90
2023-02-06T04:46:15.089Z,30.00
2023-02-06T04:48:22.205Z,29.90
2023-02-06T04:50:30.358Z,29.80
2023-02-06T04:52:37.549Z,29.80
2023-02-06T04:54:44.464Z,29.80
2023-02-06T04:56:51.732Z,29.90
2023-02-06T04:59:00.315Z,30.00
2023-02-06T05:01:07.634Z,30.00
2023-02-06T05:03:14.573Z,30.10
2023-02-06T05:05:21.449Z,30.10
2023-02-06T05:07:28.664Z,30.10
2023-02-06T05:09:35.507Z,29.90
2023-02-06T05:11:42.783Z,29.90
2023-02-06T05:13:49.772Z,29.90
2023-02-06T05:16:02.492Z,30.00
2023-02-06T05:18:09.959Z,30.00
2023-02-06T05:20:19.445Z,30.00
2023-02-06T05:22:26.787Z,30.10
2023-02-06T05:24:33.914Z,30.20
2023-02-06T05:26:41.144Z,30.30
2023-02-06T05:28:48.048Z,30.30
2023-02-06T05:30:55.491Z,30.30
2023-02-06T05:33:04.581Z,30.20
2023-02-06T05:35:12.274Z,30.20
2023-02-06T05:37:19.150Z,30.10
2023-02-06T05:39:26.741Z,30.00
2023-02-06T05:41:33.565Z,30.00
2023-02-06T05:43:40.955Z,30.00
2023-02-06T05:45:47.829Z,30.00
2023-02-06T05:47:55.416Z,30.00
2023-02-06T05:50:03.988Z,30.00
2023-02-06T05:52:11.522Z,29.90
2023-02-06T05:54:19.473Z,29.90
2023-02-06T05:56:26.608Z,29.90
2023-02-06T05:58:33.580Z,29.90
2023-02-06T06:00:40.867Z,29.90
2023-02-06T06:02:47.790Z,30.00
2023-02-06T06:04:55.268Z,30.00
2023-02-06T06:07:04.103Z,30.10
2023-02-06T06:09:11.342Z,30.10
2023-02-06T06:11:18.674Z,30.30
2023-02-06T06:13:25.953Z,30.50
2023-02-06T06:15:32.938Z,30.60
2023-02-06T06:17:39.965Z,30.70
2023-02-06T06:19:46.887Z,30.80
2023-02-06T06:21:54.078Z,30.80
2023-02-06T06:24:02.939Z,30.80
2023-02-06T06:26:10.068Z,30.70
2023-02-06T06:28:17.392Z,30.70
2023-02-06T06:30:24.586Z,30.70
2023-02-06T06:32:31.647Z,30.70
2023-02-06T06:34:38.742Z,30.70
2023-02-06T06:36:45.617Z,30.80
2023-02-06T06:38:52.698Z,30.90
2023-02-06T06:41:01.400Z,31.00
2023-02-06T06:43:08.531Z,31.20
2023-02-06T06:45:15.479Z,31.30
2023-02-06T06:47:22.788Z,31.50
2023-02-06T06:49:29.731Z,31.50
2023-02-06T06:51:37.118Z,31.50
2023-02-06T06:53:43.998Z,31.50
2023-02-06T06:55:51.225Z,31.50
2023-02-06T06:57:59.838Z,31.50
2023-02-06T07:00:08.097Z,31.60
2023-02-06T07:02:15.003Z,31.70
2023-02-06T07:04:22.151Z,31.80
2023-02-06T07:06:29.033Z,31.70
2023-02-06T07:08:37.028Z,31.60
2023-02-06T07:10:43.952Z,31.50
2023-02-06T07:12:54.448Z,31.30
2023-02-06T07:15:03.198Z,31.30
2023-02-06T07:17:10.573Z,31.30
2023-02-06T07:19:17.441Z,31.40
2023-02-06T07:21:24.676Z,31.50
2023-02-06T07:23:31.537Z,31.50
2023-02-06T07:25:38.707Z,31.60
2023-02-06T07:27:45.688Z,31.70
2023-02-06T07:29:52.942Z,31.80
2023-02-06T07:32:01.614Z,31.90
2023-02-06T07:34:08.877Z,32.00
2023-02-06T07:36:16.942Z,32.10
2023-02-06T07:38:24.330Z,32.10
2023-02-06T07:40:43.233Z,32.10
2023-02-06T07:42:51.630Z,32.20
2023-02-06T07:45:05.946Z,32.10
2023-02-06T07:47:15.122Z,32.00
2023-02-06T07:49:21.998Z,31.90
2023-02-06T07:51:29.230Z,31.80
2023-02-06T07:53:36.328Z,31.70
2023-02-06T07:55:43.594Z,31.60
2023-02-06T07:57:50.520Z,31.70
2023-02-06T07:59:57.665Z,31.80
2023-02-06T08:02:04.575Z,31.90
2023-02-06T08:04:14.472Z,32.00
2023-02-06T08:06:24.155Z,32.00
2023-02-06T08:08:31.743Z,32.00
2023-02-06T08:10:40.786Z,32.10
2023-02-06T08:12:48.153Z,32.10
2023-02-06T08:14:55.141Z,32.10
2023-02-06T08:17:02.271Z,32.20
2023-02-06T08:19:11.943Z,32.30
2023-02-06T08:21:22.018Z,32.30
2023-02-06T08:23:28.837Z,32.30
2023-02-06T08:25:36.355Z,32.30
2023-02-06T08:27:43.419Z,32.30
2023-02-06T08:29:51.403Z,32.20
2023-02-06T08:31:58.327Z,32.20
2023-02-06T08:34:05.614Z,32.30
2023-02-06T08:36:13.307Z,32.30
2023-02-06T08:38:22.480Z,32.20
2023-02-06T08:40:29.353Z,32.30
2023-02-06T08:42:37.050Z,32.30
2023-02-06T08:44:43.974Z,32.30
2023-02-06T08:46:58.807Z,32.20
2023-02-06T08:49:10.269Z,32.20
2023-02-06T08:51:18.067Z,32.20
2023-02-06T08:53:26.988Z,32.10
2023-02-06T08:55:34.334Z,32.10
2023-02-06T08:57:41.249Z,32.00
2023-02-06T08:59:48.431Z,32.00
2023-02-06T09:01:55.304Z,32.00
2023-02-06T09:04:03.974Z,32.00
2023-02-06T09:06:11.000Z,31.90
2023-02-06T09:08:18.128Z,31.90
2023-02-06T09:10:27.993Z,31.90
2023-02-06T09:12:35.512Z,31.90
2023-02-06T09:14:43.150Z,31.90
2023-02-06T09:16:50.489Z,31.80
2023-02-06T09:19:02.399Z,31.90
2023-02-06T09:21:12.542Z,31.80
2023-02-06T09:23:20.326Z,31.80
2023-02-06T09:25:29.300Z,31.80
2023-02-06T09:27:36.176Z,31.90
2023-02-06T09:29:43.407Z,31.80
2023-02-06T09:31:50.494Z,31.90
2023-02-06T09:33:57.768Z,31.90
2023-02-06T09:36:09.249Z,31.80
2023-02-06T09:38:15.459Z,31.80
2023-02-06T09:40:26.074Z,31.80
2023-02-06T09:42:38.067Z,31.70
2023-02-06T09:44:49.958Z,31.70
2023-02-06T09:47:01.342Z,31.60
2023-02-06T09:49:17.459Z,31.60
2023-02-06T09:51:35.359Z,31.60
2023-02-06T09:53:50.636Z,31.50
2023-02-06T09:56:05.287Z,31.50
2023-02-06T09:58:24.196Z,31.50
2023-02-06T10:00:42.794Z,31.50
2023-02-06T10:03:16.736Z,31.50
2023-02-06T10:05:30.030Z,31.50
2023-02-06T10:07:59.568Z,31.40
2023-02-06T10:10:09.940Z,31.40
2023-02-06T10:12:21.268Z,31.30
2023-02-06T10:14:33.830Z,31.30
2023-02-06T10:16:45.525Z,31.30
2023-02-06T10:18:55.857Z,31.20
2023-02-06T10:21:07.658Z,31.20
2023-02-06T10:23:21.496Z,31.20
2023-02-06T10:25:33.303Z,31.10
2023-02-06T10:27:44.205Z,31.10
2023-02-06T10:29:53.173Z,31.00
2023-02-06T10:32:09.561Z,31.00
2023-02-06T10:34:37.908Z,31.00
2023-02-06T10:36:56.714Z,31.00
2023-02-06T10:39:34.914Z,31.00
2023-02-06T10:41:50.766Z,30.90
2023-02-06T10:44:02.402Z,30.80
2023-02-06T10:46:27.392Z,30.70
2023-02-06T10:48:39.339Z,30.70
2023-02-06T10:50:48.703Z,30.60
2023-02-06T10:52:59.287Z,30.50
2023-02-06T10:55:16.856Z,30.40
2023-02-06T10:57:28.919Z,30.40
2023-02-06T10:59:38.492Z,30.20
2023-02-06T11:01:50.292Z,30.20
2023-02-06T11:04:03.102Z,30.10
2023-02-06T11:06:14.065Z,30.00
2023-02-06T11:08:25.786Z,29.90
2023-02-06T11:10:34.853Z,29.90
2023-02-06T11:12:45.131Z,29.80
2023-02-06T11:14:53.885Z,29.80
2023-02-06T11:17:04.051Z,29.70
2023-02-06T11:19:23.368Z,29.70
2023-02-06T11:21:55.546Z,29.70
2023-02-06T11:24:15.109Z,29.70
2023-02-06T11:26:24.287Z,29.60
2023-02-06T11:28:32.032Z,29.50
2023-02-06T11:30:40.603Z,29.50
2023-02-06T11:33:03.662Z,29.40
2023-02-06T11:35:25.270Z,29.30
2023-02-06T11:37:37.728Z,29.30
2023-02-06T11:39:44.600Z,29.20
2023-02-06T11:42:00.995Z,29.20
2023-02-06T11:44:09.098Z,29.10
2023-02-06T11:46:21.538Z,29.00
2023-02-06T11:48:44.402Z,28.90
2023-02-06T11:50:58.187Z,28.90
2023-02-06T11:53:12.588Z,28.80
2023-02-06T11:55:30.013Z,28.80
2023-02-06T11:57:37.688Z,28.80
2023-02-06T11:59:56.700Z,28.80
2023-02-06T12:02:06.729Z,28.70
2023-02-06T12:04:25.721Z,28.70
2023-02-06T12:06:36.216Z,28.70
2023-02-06T12:08:52.630Z,28.60
2023-02-06T12:11:04.366Z,28.60
2023-02-06T12:13:11.947Z,28.60
2023-02-06T12:15:46.481Z,28.50
2023-02-06T12:17:56.518Z,28.50
2023-02-06T12:20:09.447Z,28.50
2023-02-06T12:22:20.850Z,28.50
2023-02-06T12:24:33.264Z,28.50
2023-02-06T12:26:41.537Z,28.50
2023-02-06T12:28:58.349Z,28.50
2023-02-06T12:31:10.267Z,28.50
2023-02-06T12:33:20.592Z,28.40
2023-02-06T12:35:37.651Z,28.40
2023-02-06T12:37:51.028Z,28.40
2023-02-06T12:39:58.043Z,28.40
2023-02-06T12:42:21.518Z,28.30
2023-02-06T12:44:35.603Z,28.30
2023-02-06T12:46:43.974Z,28.30
2023-02-06T12:48:56.206Z,28.30
2023-02-06T12:51:15.638Z,28.20
2023-02-06T12:53:31.119Z,28.20
2023-02-06T12:55:41.418Z,28.20
2023-02-06T12:57:49.009Z,28.20
2023-02-06T13:00:30.665Z,28.20
2023-02-06T13:03:05.437Z,28.20
2023-02-06T13:05:23.177Z,28.10
2023-02-06T13:07:33.960Z,28.10
2023-02-06T13:09:56.622Z,28.00
2023-02-06T13:12:16.969Z,27.90
2023-02-06T13:14:27.132Z,27.80
2023-02-06T13:16:52.936Z,27.80
2023-02-06T13:19:06.668Z,27.80
2023-02-06T13:21:21.633Z,27.80
2023-02-06T13:23:30.558Z,27.80
2023-02-06T13:25:55.198Z,27.70
2023-02-06T13:28:03.986Z,27.70
2023-02-06T13:30:44.765Z,27.60
2023-02-06T13:32:54.323Z,27.60
2023-02-06T13:35:10.060Z,27.50
2023-02-06T13:37:37.565Z,27.60
2023-02-06T13:39:51.299Z,27.50
2023-02-06T13:41:59.044Z,27.50
2023-02-06T13:44:12.577Z,27.40
2023-02-06T13:46:22.913Z,27.40
2023-02-06T13:48:50.951Z,27.40
2023-02-06T13:51:07.042Z,27.30
2023-02-06T13:53:53.697Z,27.30
2023-02-06T13:56:17.212Z,27.30
2023-02-06T13:58:43.034Z,27.20
2023-02-06T14:00:53.694Z,27.20
2023-02-06T14:03:09.529Z,27.20
2023-02-06T14:05:20.037Z,27.20
2023-02-06T14:08:11.445Z,27.10
2023-02-06T14:10:50.857Z,27.20
2023-02-06T14:13:14.719Z,27.10
2023-02-06T14:15:31.120Z,27.10
2023-02-06T14:18:01.279Z,27.10
2023-02-06T14:20:19.475Z,26.90
2023-02-06T14:22:33.089Z,26.90
2023-02-06T14:25:05.284Z,26.90
2023-02-06T14:27:34.962Z,26.90
2023-02-06T14:29:51.407Z,26.80
2023-02-06T14:32:23.453Z,26.80
2023-02-06T14:34:42.606Z,26.80
2023-02-06T14:37:11.187Z,26.80
2023-02-06T14:39:52.211Z,26.80
2023-02-06T14:41:59.545Z,26.80
2023-02-06T14:44:06.606Z,26.70
2023-02-06T14:46:18.007Z,26.70
2023-02-06T14:48:28.728Z,26.70
2023-02-06T14:50:41.370Z,26.60
2023-02-06T14:52:50.238Z,26.60
2023-02-06T14:54:58.243Z,26.60
2023-02-06T14:57:06.515Z,26.60
2023-02-06T14:59:21.015Z,26.60
2023-02-06T15:01:32.731Z,26.60
2023-02-06T15:03:41.146Z,26.60
2023-02-06T15:05:48.499Z,26.60
2023-02-06T15:08:02.027Z,26.60
2023-02-06T15:10:12.028Z,26.50
2023-02-06T15:12:22.654Z,26.50
2023-02-06T15:14:31.410Z,26.50
2023-02-06T15:16:51.904Z,26.50
2023-02-06T15:19:13.995Z,26.50
2023-02-06T15:21:23.779Z,26.50
2023-02-06T15:23:40.848Z,26.60
2023-02-06T15:25:57.959Z,26.50
2023-02-06T15:28:07.583Z,26.50
2023-02-06T15:30:22.622Z,26.50
2023-02-06T15:32:36.790Z,26.40
2023-02-06T15:34:43.834Z,26.40
2023-02-06T15:36:50.710Z,26.30
2023-02-06T15:38:57.787Z,26.30
2023-02-06T15:41:07.495Z,26.30
2023-02-06T15:43:18.707Z,26.30
2023-02-06T15:45:27.805Z,26.30
2023-02-06T15:47:37.317Z,26.20
2023-02-06T15:49:46.224Z,26.20
2023-02-06T15:51:59.461Z,26.20
2023-02-06T15:54:11.879Z,26.20
2023-02-06T15:56:26.117Z,26.30
2023-02-06T15:58:35.182Z,26.20
2023-02-06T16:00:42.652Z,26.20
2023-02-06T16:02:51.747Z,26.20
2023-02-06T16:04:59.039Z,26.20
2023-02-06T16:07:15.334Z,26.20
2023-02-06T16:09:25.232Z,26.20
2023-02-06T16:11:51.974Z,26.20
2023-02-06T16:13:59.776Z,26.10
2023-02-06T16:16:10.853Z,26.10
2023-02-06T16:18:32.927Z,26.10
2023-02-06T16:20:40.716Z,26.10
2023-02-06T16:22:47.896Z,26.00
2023-02-06T16:24:57.390Z,26.00
2023-02-06T16:27:23.103Z,25.90
2023-02-06T16:29:34.682Z,25.90
2023-02-06T16:31:44.109Z,25.90
2023-02-06T16:33:55.136Z,25.80
2023-02-06T16:36:02.319Z,25.80
2023-02-06T16:38:13.325Z,25.90
2023-02-06T16:40:21.082Z,25.90
2023-02-06T16:42:29.533Z,25.80
2023-02-06T16:44:44.710Z,25.90
2023-02-06T16:46:52.042Z,25.90
2023-02-06T16:49:02.875Z,25.80
2023-02-06T16:51:11.380Z,25.80
2023-02-06T16:53:22.972Z,25.80
2023-02-06T16:55:30.657Z,25.80
2023-02-06T16:57:42.397Z,25.80
2023-02-06T16:59:49.303Z,25.70
2023-02-06T17:01:56.807Z,25.70
2023-02-06T17:04:05.322Z,25.70
2023-02-06T17:06:17.423Z,25.70
2023-02-06T17:08:28.799Z,25.70
2023-02-06T17:10:39.205Z,25.60
2023-02-06T17:12:49.000Z,25.60
2023-02-06T17:14:57.563Z,25.60
2023-02-06T17:17:04.542Z,25.60
2023-02-06T17:19:16.693Z,25.60
2023-02-06T17:21:28.620Z,25.60
2023-02-06T17:23:36.283Z,25.60
2023-02-06T17:25:44.275Z,25.60
2023-02-06T17:27:51.480Z,25.60
2023-02-06T17:29:58.630Z,25.60
2023-02-06T17:32:07.181Z,25.50
2023-02-06T17:34:15.866Z,25.50
2023-02-06T17:36:30.425Z,25.40
2023-02-06T17:38:37.502Z,25.40
2023-02-06T17:40:44.903Z,25.40
2023-02-06T17:42:52.339Z,25.40
2023-02-06T17:44:59.409Z,25.40
2023-02-06T17:47:06.236Z,25.40
2023-02-06T17:49:15.105Z,25.30
2023-02-06T17:51:22.085Z,25.30
2023-02-06T17:53:29.264Z,25.30
2023-02-06T17:55:37.724Z,25.20
2023-02-06T17:57:44.890Z,25.30
2023-02-06T17:59:54.854Z,25.20
2023-02-06T18:02:02.392Z,25.20
2023-02-06T18:04:09.574Z,25.30
2023-02-06T18:06:19.060Z,25.30
2023-02-06T18:08:25.936Z,25.30
2023-02-06T18:10:33.118Z,25.30
2023-02-06T18:12:40.554Z,25.30
2023-02-06T18:14:49.020Z,25.30
2023-02-06T18:16:55.975Z,25.30
2023-02-06T18:19:03.059Z,25.30
2023-02-06T18:21:10.100Z,25.30
2023-02-06T18:23:20.251Z,25.30
2023-02-06T18:25:27.158Z,25.30
2023-02-06T18:27:34.254Z,25.30
2023-02-06T18:29:49.797Z,25.30
2023-02-06T18:31:57.223Z,25.30
2023-02-06T18:34:05.578Z,25.40
2023-02-06T18:36:13.118Z,25.30
2023-02-06T18:38:22.448Z,25.30
2023-02-06T18:40:30.686Z,25.30
2023-02-06T18:42:55.044Z,25.20
2023-02-06T18:45:04.032Z,25.20
2023-02-06T18:47:11.139Z,25.20
2023-02-06T18:49:18.473Z,25.20
2023-02-06T18:51:25.404Z,25.20
2023-02-06T18:53:34.169Z,25.20
2023-02-06T18:55:41.557Z,25.10
2023-02-06T18:57:49.155Z,25.10
2023-02-06T18:59:56.032Z,25.10
2023-02-06T19:02:03.056Z,25.10
2023-02-06T19:04:10.334Z,25.10
2023-02-06T19:06:18.905Z,25.20
2023-02-06T19:08:26.030Z,25.20
2023-02-06T19:10:34.880Z,25.10
2023-02-06T19:12:42.288Z,25.20
2023-02-06T19:14:49.268Z,25.20
2023-02-06T19:16:56.843Z,25.20
2023-02-06T19:19:03.733Z,25.20
2023-02-06T19:21:12.042Z,25.20
2023-02-06T19:23:18.969Z,25.20
2023-02-06T19:25:26.393Z,25.10
2023-02-06T19:27:34.969Z,25.10
2023-02-06T19:29:42.461Z,25.10
2023-02-06T19:31:49.798Z,25.10
2023-02-06T19:33:58.674Z,25.00
2023-02-06T19:36:09.943Z,25.00
2023-02-06T19:38:17.226Z,25.00
2023-02-06T19:40:24.355Z,25.00
2023-02-06T19:42:31.589Z,24.90
2023-02-06T19:44:40.866Z,24.90
2023-02-06T19:46:48.156Z,24.90
2023-02-06T19:48:55.947Z,24.90
2023-02-06T19:51:07.188Z,24.90
2023-02-06T19:53:16.839Z,24.90
2023-02-06T19:55:24.095Z,24.90
2023-02-06T19:57:30.854Z,25.00
2023-02-06T19:59:39.795Z,25.00
2023-02-06T20:01:46.721Z,25.00
2023-02-06T20:03:54.459Z,24.90
2023-02-06T20:06:04.814Z,24.90
2023-02-06T20:08:12.354Z,24.80
2023-02-06T20:10:19.331Z,24.80
2023-02-06T20:12:26.900Z,24.80
2023-02-06T20:14:34.260Z,24.80
2023-02-06T20:16:44.650Z,24.80
2023-02-06T20:18:51.801Z,24.80
2023-02-06T20:20:58.981Z,24.80
2023-02-06T20:23:06.316Z,24.80
2023-02-06T20:25:13.808Z,24.90
2023-02-06T20:27:21.348Z,24.80
2023-02-06T20:29:30.214Z,24.80
2023-02-06T20:31:38.456Z,24.70
2023-02-06T20:33:47.216Z,24.70
2023-02-06T20:35:54.435Z,24.70
2023-02-06T20:38:01.465Z,24.70
2023-02-06T20:40:09.351Z,24.70
2023-02-06T20:42:16.381Z,24.70
2023-02-06T20:44:24.330Z,24.70
2023-02-06T20:46:33.655Z,24.70
2023-02-06T20:48:40.943Z,24.70
2023-02-06T20:50:49.501Z,24.70
2023-02-06T20:52:56.636Z,24.70
2023-02-06T20:55:03.524Z,24.70
2023-02-06T20:57:10.691Z,24.70
2023-02-06T20:59:18.796Z,24.70
2023-02-06T21:01:28.200Z,24.60
2023-02-06T21:03:35.105Z,24.60
2023-02-06T21:05:42.293Z,24.60
2023-02-06T21:07:50.900Z,24.50
2023-02-06T21:09:58.399Z,24.50
2023-02-06T21:12:05.420Z,24.50
2023-02-06T21:14:13.468Z,24.50
2023-02-06T21:16:20.444Z,24.50
2023-02-06T21:18:29.115Z,24.50
2023-02-06T21:20:36.363Z,24.50
2023-02-06T21:22:43.682Z,24.50
2023-02-06T21:24:52.454Z,24.60
2023-02-06T21:26:59.687Z,24.60
2023-02-06T21:29:07.124Z,24.50
2023-02-06T21:31:17.904Z,24.40
2023-02-06T21:33:24.918Z,24.40
2023-02-06T21:35:34.711Z,24.30
2023-02-06T21:37:41.841Z,24.30
2023-02-06T21:39:50.712Z,24.30
2023-02-06T21:41:58.561Z,24.30
2023-02-06T21:44:05.946Z,24.30
2023-02-06T21:46:13.934Z,24.30
2023-02-06T21:48:21.129Z,24.30
2023-02-06T21:50:28.004Z,24.30
2023-02-06T21:52:37.594Z,24.20
2023-02-06T21:54:44.518Z,24.10
2023-02-06T21:56:54.006Z,24.10
2023-02-06T21:59:01.245Z,24.10
2023-02-06T22:01:09.177Z,24.10
2023-02-06T22:03:17.085Z,24.20
2023-02-06T22:05:24.214Z,24.20
2023-02-06T22:07:31.142Z,24.20
2023-02-06T22:09:38.325Z,24.20
2023-02-06T22:11:46.274Z,24.30
2023-02-06T22:13:56.153Z,24.30
2023-02-06T22:16:02.965Z,24.30
2023-02-06T22:18:11.251Z,24.30
2023-02-06T22:20:18.639Z,24.40
2023-02-06T22:22:25.868Z,24.40
2023-02-06T22:24:32.792Z,24.40
2023-02-06T22:26:42.535Z,24.40
2023-02-06T22:28:50.023Z,24.30
2023-02-06T22:30:58.952Z,24.30
2023-02-06T22:33:05.868Z,24.30
2023-02-06T22:35:13.102Z,24.20
2023-02-06T22:37:19.972Z,24.20
2023-02-06T22:39:27.052Z,24.20
2023-02-06T22:41:34.081Z,24.20
2023-02-06T22:43:42.083Z,24.20
2023-02-06T22:45:52.080Z,24.20
2023-02-06T22:48:01.103Z,24.20
2023-02-06T22:50:08.719Z,24.20
2023-02-06T22:52:28.684Z,24.20
2023-02-06T22:54:35.960Z,24.20
2023-02-06T22:56:43.665Z,24.20
2023-02-06T22:58:51.350Z,24.20
2023-02-06T23:01:05.734Z,24.20
2023-02-06T23:03:14.619Z,24.20
2023-02-06T23:05:21.649Z,24.10
2023-02-06T23:07:29.139Z,24.10
2023-02-06T23:09:37.447Z,24.10
2023-02-06T23:11:44.684Z,24.10
2023-02-06T23:13:56.114Z,24.10
2023-02-06T23:16:03.512Z,24.00
2023-02-06T23:18:10.373Z,24.00
2023-02-06T23:20:19.452Z,24.00
2023-02-06T23:22:26.428Z,24.00
2023-02-06T23:24:33.590Z,24.00
2023-02-06T23:26:40.848Z,24.00
2023-02-06T23:28:48.229Z,24.00
2023-02-06T23:30:55.668Z,24.10
2023-02-06T23:33:02.847Z,24.10
2023-02-06T23:35:10.285Z,24.10
2023-02-06T23:37:19.414Z,24.20
2023-02-06T23:39:26.233Z,24.20
2023-02-06T23:41:33.448Z,24.20
2023-02-06T23:43:40.750Z,24.20
2023-02-06T23:45:47.919Z,24.20
2023-02-06T23:47:55.273Z,24.20
2023-02-06T23:50:02.550Z,24.20
2023-02-06T23:52:09.782Z,24.10
2023-02-06T23:54:18.447Z,24.10
2023-02-06T23:56:26.706Z,24.10
2023-02-06T23:58:33.992Z,24.10
